sensor_id;sensor_type;location;lat;lon;timestamp;pressure;altitude;pressure_sealevel;temperature;humidity
75668;BME280;64266;48.798;44.756;2022-10-16T00:02:08;102993.50;;;6.40;58.09
75668;BME280;64266;48.798;44.756;2022-10-16T00:04:34;103029.22;;;6.63;57.79
75668;BME280;64266;48.798;44.756;2022-10-16T00:07:00;103010.75;;;6.53;57.39
75668;BME280;64266;48.798;44.756;2022-10-16T00:09:25;103023.69;;;6.66;56.72
75668;BME280;64266;48.798;44.756;2022-10-16T00:11:51;103027.16;;;6.57;56.62
75668;BME280;64266;48.798;44.756;2022-10-16T00:14:17;103011.53;;;6.35;57.12
75668;BME280;64266;48.798;44.756;2022-10-16T00:16:43;103018.03;;;6.31;56.91
75668;BME280;64266;48.798;44.756;2022-10-16T00:19:10;103049.47;;;6.53;57.33
75668;BME280;64266;48.798;44.756;2022-10-16T00:21:37;102986.50;;;6.10;57.17
75668;BME280;64266;48.798;44.756;2022-10-16T00:24:21;102969.72;;;6.02;57.71
75668;BME280;64266;48.798;44.756;2022-10-16T00:26:49;103001.34;;;6.11;58.03
75668;BME280;64266;48.798;44.756;2022-10-16T00:29:15;103064.25;;;6.35;58.18
75668;BME280;64266;48.798;44.756;2022-10-16T00:31:40;103044.91;;;6.25;58.09
75668;BME280;64266;48.798;44.756;2022-10-16T00:34:06;103047.56;;;6.25;57.64
75668;BME280;64266;48.798;44.756;2022-10-16T00:36:32;103010.69;;;5.94;58.60
75668;BME280;64266;48.798;44.756;2022-10-16T00:38:58;103063.25;;;6.26;58.28
75668;BME280;64266;48.798;44.756;2022-10-16T00:41:27;103034.19;;;6.07;58.60
75668;BME280;64266;48.798;44.756;2022-10-16T00:44:01;103038.75;;;6.05;58.39
75668;BME280;64266;48.798;44.756;2022-10-16T00:46:41;103036.34;;;5.92;59.22
75668;BME280;64266;48.798;44.756;2022-10-16T00:49:13;103056.63;;;6.02;59.41
75668;BME280;64266;48.798;44.756;2022-10-16T00:51:42;103068.38;;;5.97;59.51
75668;BME280;64266;48.798;44.756;2022-10-16T00:54:30;103063.94;;;5.98;59.71
75668;BME280;64266;48.798;44.756;2022-10-16T00:56:58;103076.94;;;5.90;60.37
75668;BME280;64266;48.798;44.756;2022-10-16T00:59:28;102987.19;;;5.31;60.46
75668;BME280;64266;48.798;44.756;2022-10-16T01:01:56;103073.09;;;5.83;60.78
75668;BME280;64266;48.798;44.756;2022-10-16T01:04:23;103033.94;;;5.48;60.76
75668;BME280;64266;48.798;44.756;2022-10-16T01:10:01;103079.06;;;5.85;61.07
75668;BME280;64266;48.798;44.756;2022-10-16T01:15:02;103078.31;;;5.73;60.42
75668;BME280;64266;48.798;44.756;2022-10-16T01:17:42;103081.00;;;5.83;60.24
75668;BME280;64266;48.798;44.756;2022-10-16T01:25:58;103084.94;;;5.68;60.20
75668;BME280;64266;48.798;44.756;2022-10-16T01:28:32;103086.97;;;5.64;59.83
75668;BME280;64266;48.798;44.756;2022-10-16T01:31:01;103094.34;;;5.70;60.42
75668;BME280;64266;48.798;44.756;2022-10-16T01:33:43;103027.97;;;5.46;59.81
75668;BME280;64266;48.798;44.756;2022-10-16T01:36:18;103084.84;;;5.79;59.37
75668;BME280;64266;48.798;44.756;2022-10-16T01:38:49;103037.75;;;5.34;59.46
75668;BME280;64266;48.798;44.756;2022-10-16T01:41:26;103067.66;;;5.54;59.10
75668;BME280;64266;48.798;44.756;2022-10-16T01:43:58;103094.09;;;5.73;59.68
75668;BME280;64266;48.798;44.756;2022-10-16T01:46:29;103106.38;;;5.84;58.97
75668;BME280;64266;48.798;44.756;2022-10-16T01:48:56;103070.31;;;5.75;58.85
75668;BME280;64266;48.798;44.756;2022-10-16T01:51:24;103106.47;;;5.93;59.01
75668;BME280;64266;48.798;44.756;2022-10-16T01:53:53;103087.72;;;5.87;58.23
75668;BME280;64266;48.798;44.756;2022-10-16T01:56:24;103048.91;;;5.68;58.24
75668;BME280;64266;48.798;44.756;2022-10-16T01:58:54;103053.66;;;5.74;58.16
75668;BME280;64266;48.798;44.756;2022-10-16T02:01:23;103055.06;;;5.78;58.02
75668;BME280;64266;48.798;44.756;2022-10-16T02:03:53;103043.66;;;5.68;57.74
75668;BME280;64266;48.798;44.756;2022-10-16T02:06:20;102981.34;;;5.27;57.97
75668;BME280;64266;48.798;44.756;2022-10-16T02:08:47;103032.09;;;5.60;57.11
75668;BME280;64266;48.798;44.756;2022-10-16T02:11:13;103112.81;;;5.91;57.64
75668;BME280;64266;48.798;44.756;2022-10-16T02:13:48;103065.47;;;5.59;58.01
75668;BME280;64266;48.798;44.756;2022-10-16T02:16:16;103072.88;;;5.65;58.38
75668;BME280;64266;48.798;44.756;2022-10-16T02:18:43;103053.34;;;5.47;57.38
75668;BME280;64266;48.798;44.756;2022-10-16T02:21:25;103106.81;;;5.68;58.64
75668;BME280;64266;48.798;44.756;2022-10-16T02:27:10;103127.38;;;5.74;58.30
75668;BME280;64266;48.798;44.756;2022-10-16T02:29:41;103130.53;;;5.68;58.25
75668;BME280;64266;48.798;44.756;2022-10-16T02:32:16;103103.09;;;5.50;57.79
75668;BME280;64266;48.798;44.756;2022-10-16T02:34:44;103117.91;;;5.51;59.06
75668;BME280;64266;48.798;44.756;2022-10-16T02:37:11;103109.75;;;5.54;58.80
75668;BME280;64266;48.798;44.756;2022-10-16T02:39:38;103143.34;;;5.82;58.09
75668;BME280;64266;48.798;44.756;2022-10-16T02:42:12;103111.19;;;5.58;58.28
75668;BME280;64266;48.798;44.756;2022-10-16T02:44:39;103105.56;;;5.52;58.36
75668;BME280;64266;48.798;44.756;2022-10-16T02:47:05;103134.25;;;5.66;58.02
75668;BME280;64266;48.798;44.756;2022-10-16T02:49:31;103149.94;;;5.88;58.95
75668;BME280;64266;48.798;44.756;2022-10-16T02:51:57;103082.63;;;5.54;58.90
75668;BME280;64266;48.798;44.756;2022-10-16T02:54:23;103090.13;;;5.58;58.94
75668;BME280;64266;48.798;44.756;2022-10-16T02:56:49;103144.03;;;5.95;58.29
75668;BME280;64266;48.798;44.756;2022-10-16T02:59:15;103084.66;;;5.50;58.64
75668;BME280;64266;48.798;44.756;2022-10-16T03:01:41;103150.41;;;5.93;58.55
75668;BME280;64266;48.798;44.756;2022-10-16T03:04:07;103013.59;;;5.09;58.82
75668;BME280;64266;48.798;44.756;2022-10-16T03:06:33;103153.22;;;6.01;59.37
75668;BME280;64266;48.798;44.756;2022-10-16T03:08:59;103150.00;;;5.97;58.90
75668;BME280;64266;48.798;44.756;2022-10-16T03:11:25;103112.94;;;5.69;59.18
75668;BME280;64266;48.798;44.756;2022-10-16T03:13:52;103097.00;;;5.50;59.21
75668;BME280;64266;48.798;44.756;2022-10-16T03:16:18;103137.31;;;5.71;59.56
75668;BME280;64266;48.798;44.756;2022-10-16T03:18:47;103161.59;;;5.74;59.57
75668;BME280;64266;48.798;44.756;2022-10-16T03:21:13;103152.16;;;5.72;60.24
75668;BME280;64266;48.798;44.756;2022-10-16T03:23:40;103140.31;;;5.66;60.34
75668;BME280;64266;48.798;44.756;2022-10-16T03:26:05;103052.31;;;5.07;60.29
75668;BME280;64266;48.798;44.756;2022-10-16T03:28:31;103163.66;;;5.71;60.45
75668;BME280;64266;48.798;44.756;2022-10-16T03:30:57;103150.53;;;5.60;59.94
75668;BME280;64266;48.798;44.756;2022-10-16T03:33:23;103173.34;;;5.70;60.30
75668;BME280;64266;48.798;44.756;2022-10-16T03:35:53;103180.72;;;5.76;60.50
75668;BME280;64266;48.798;44.756;2022-10-16T03:38:20;103092.19;;;5.23;60.63
75668;BME280;64266;48.798;44.756;2022-10-16T03:40:47;103147.44;;;5.55;60.82
75668;BME280;64266;48.798;44.756;2022-10-16T03:43:12;103153.59;;;5.44;59.72
75668;BME280;64266;48.798;44.756;2022-10-16T03:45:38;103132.34;;;5.25;59.04
75668;BME280;64266;48.798;44.756;2022-10-16T03:48:04;103146.69;;;5.32;59.86
75668;BME280;64266;48.798;44.756;2022-10-16T03:50:30;103170.31;;;5.43;59.64
75668;BME280;64266;48.798;44.756;2022-10-16T03:52:55;103165.06;;;5.43;59.85
75668;BME280;64266;48.798;44.756;2022-10-16T03:55:21;103176.69;;;5.40;59.68
75668;BME280;64266;48.798;44.756;2022-10-16T03:57:47;103167.94;;;5.40;59.69
75668;BME280;64266;48.798;44.756;2022-10-16T04:00:13;103178.09;;;5.44;60.08
75668;BME280;64266;48.798;44.756;2022-10-16T04:02:39;103187.16;;;5.52;60.12
75668;BME280;64266;48.798;44.756;2022-10-16T04:05:05;103088.50;;;4.82;59.54
75668;BME280;64266;48.798;44.756;2022-10-16T04:07:31;103124.06;;;4.98;59.63
75668;BME280;64266;48.798;44.756;2022-10-16T04:09:57;103194.84;;;5.43;59.33
75668;BME280;64266;48.798;44.756;2022-10-16T04:12:25;103199.13;;;5.44;59.94
75668;BME280;64266;48.798;44.756;2022-10-16T04:14:51;103223.41;;;5.59;60.17
75668;BME280;64266;48.798;44.756;2022-10-16T04:17:17;103234.63;;;5.61;59.49
75668;BME280;64266;48.798;44.756;2022-10-16T04:19:43;103217.09;;;5.51;59.10
75668;BME280;64266;48.798;44.756;2022-10-16T04:22:10;103220.66;;;5.50;59.00
75668;BME280;64266;48.798;44.756;2022-10-16T04:24:36;103222.00;;;5.44;59.20
75668;BME280;64266;48.798;44.756;2022-10-16T04:27:03;103253.09;;;5.50;59.16
75668;BME280;64266;48.798;44.756;2022-10-16T04:29:29;103177.56;;;5.08;58.65
75668;BME280;64266;48.798;44.756;2022-10-16T04:31:55;103238.59;;;5.44;57.99
75668;BME280;64266;48.798;44.756;2022-10-16T04:34:21;103240.91;;;5.38;58.45
75668;BME280;64266;48.798;44.756;2022-10-16T04:36:47;103236.47;;;5.38;58.43
75668;BME280;64266;48.798;44.756;2022-10-16T04:39:15;103223.22;;;5.29;58.26
75668;BME280;64266;48.798;44.756;2022-10-16T04:41:41;103192.41;;;5.09;58.59
75668;BME280;64266;48.798;44.756;2022-10-16T04:44:06;103235.19;;;5.22;57.85
75668;BME280;64266;48.798;44.756;2022-10-16T04:46:32;103262.69;;;5.29;58.19
75668;BME280;64266;48.798;44.756;2022-10-16T04:48:58;103204.50;;;5.00;57.88
75668;BME280;64266;48.798;44.756;2022-10-16T04:51:24;103246.66;;;5.32;58.46
75668;BME280;64266;48.798;44.756;2022-10-16T04:53:51;103226.59;;;5.20;58.57
75668;BME280;64266;48.798;44.756;2022-10-16T04:56:17;103195.72;;;5.11;58.71
75668;BME280;64266;48.798;44.756;2022-10-16T04:58:43;103247.81;;;5.39;58.46
75668;BME280;64266;48.798;44.756;2022-10-16T05:01:08;103259.19;;;5.39;58.42
75668;BME280;64266;48.798;44.756;2022-10-16T05:03:35;103226.66;;;5.29;59.26
75668;BME280;64266;48.798;44.756;2022-10-16T05:06:01;103262.97;;;5.58;58.61
75668;BME280;64266;48.798;44.756;2022-10-16T05:08:26;103190.97;;;5.16;58.89
75668;BME280;64266;48.798;44.756;2022-10-16T05:10:52;103247.78;;;5.61;58.43
75668;BME280;64266;48.798;44.756;2022-10-16T05:13:18;103290.81;;;5.93;58.50
75668;BME280;64266;48.798;44.756;2022-10-16T05:15:47;103268.41;;;5.99;58.41
75668;BME280;64266;48.798;44.756;2022-10-16T05:18:14;103251.69;;;6.10;58.40
75668;BME280;64266;48.798;44.756;2022-10-16T05:20:41;103295.06;;;6.79;58.08
75668;BME280;64266;48.798;44.756;2022-10-16T05:23:07;103272.22;;;7.29;55.80
75668;BME280;64266;48.798;44.756;2022-10-16T05:25:36;103283.47;;;7.99;55.52
75668;BME280;64266;48.798;44.756;2022-10-16T05:28:03;103262.75;;;8.43;53.65
75668;BME280;64266;48.798;44.756;2022-10-16T05:30:28;103267.16;;;8.98;51.51
75668;BME280;64266;48.798;44.756;2022-10-16T05:32:55;103272.69;;;9.42;50.80
75668;BME280;64266;48.798;44.756;2022-10-16T05:35:21;103256.97;;;9.75;49.56
75668;BME280;64266;48.798;44.756;2022-10-16T05:37:51;103272.16;;;10.01;48.80
75668;BME280;64266;48.798;44.756;2022-10-16T05:40:18;103285.81;;;10.49;48.08
75668;BME280;64266;48.798;44.756;2022-10-16T05:42:43;103278.63;;;10.85;47.33
75668;BME280;64266;48.798;44.756;2022-10-16T05:45:10;103249.63;;;10.92;47.47
75668;BME280;64266;48.798;44.756;2022-10-16T05:47:37;103272.16;;;11.29;46.54
75668;BME280;64266;48.798;44.756;2022-10-16T05:50:04;103289.13;;;11.70;46.15
75668;BME280;64266;48.798;44.756;2022-10-16T05:52:30;103288.66;;;11.91;45.11
75668;BME280;64266;48.798;44.756;2022-10-16T05:54:56;103298.44;;;11.82;44.29
75668;BME280;64266;48.798;44.756;2022-10-16T05:57:22;103262.72;;;11.77;44.37
75668;BME280;64266;48.798;44.756;2022-10-16T05:59:48;103289.19;;;12.03;44.74
75668;BME280;64266;48.798;44.756;2022-10-16T06:02:14;103258.09;;;11.95;44.00
75668;BME280;64266;48.798;44.756;2022-10-16T06:04:40;103293.00;;;12.16;44.23
75668;BME280;64266;48.798;44.756;2022-10-16T06:07:06;103249.13;;;11.96;43.50
75668;BME280;64266;48.798;44.756;2022-10-16T06:09:38;103289.00;;;12.04;43.27
75668;BME280;64266;48.798;44.756;2022-10-16T06:12:04;103280.00;;;11.89;44.13
75668;BME280;64266;48.798;44.756;2022-10-16T06:14:30;103275.03;;;11.86;44.51
75668;BME280;64266;48.798;44.756;2022-10-16T06:16:56;103282.50;;;11.82;44.35
75668;BME280;64266;48.798;44.756;2022-10-16T06:19:22;103257.84;;;11.64;43.66
75668;BME280;64266;48.798;44.756;2022-10-16T06:21:48;103290.59;;;11.73;43.02
75668;BME280;64266;48.798;44.756;2022-10-16T06:24:14;103287.47;;;11.77;44.30
75668;BME280;64266;48.798;44.756;2022-10-16T06:26:39;103178.34;;;11.13;42.89
75668;BME280;64266;48.798;44.756;2022-10-16T06:29:07;103282.59;;;11.65;43.04
75668;BME280;64266;48.798;44.756;2022-10-16T06:31:33;103284.22;;;11.58;43.84
75668;BME280;64266;48.798;44.756;2022-10-16T06:34:00;103294.19;;;11.56;43.77
75668;BME280;64266;48.798;44.756;2022-10-16T06:36:26;103286.75;;;11.59;43.32
75668;BME280;64266;48.798;44.756;2022-10-16T06:38:53;103292.59;;;11.71;43.45
75668;BME280;64266;48.798;44.756;2022-10-16T06:41:21;103269.66;;;11.70;43.34
75668;BME280;64266;48.798;44.756;2022-10-16T06:43:48;103286.00;;;11.99;43.05
75668;BME280;64266;48.798;44.756;2022-10-16T06:46:17;103305.13;;;12.19;42.50
75668;BME280;64266;48.798;44.756;2022-10-16T06:48:44;103301.66;;;12.34;42.01
75668;BME280;64266;48.798;44.756;2022-10-16T06:51:13;103292.50;;;12.45;42.35
75668;BME280;64266;48.798;44.756;2022-10-16T06:53:41;103268.06;;;12.33;42.04
75668;BME280;64266;48.798;44.756;2022-10-16T06:56:16;103263.72;;;12.48;41.12
75668;BME280;64266;48.798;44.756;2022-10-16T06:58:42;103277.50;;;12.68;41.08
75668;BME280;64266;48.798;44.756;2022-10-16T07:01:08;103288.44;;;12.81;40.05
75668;BME280;64266;48.798;44.756;2022-10-16T07:03:39;103295.78;;;12.71;40.42
75668;BME280;64266;48.798;44.756;2022-10-16T07:06:05;103294.81;;;12.64;40.48
75668;BME280;64266;48.798;44.756;2022-10-16T07:08:32;103277.50;;;12.52;40.39
75668;BME280;64266;48.798;44.756;2022-10-16T07:11:04;103299.97;;;12.58;41.17
75668;BME280;64266;48.798;44.756;2022-10-16T07:13:33;103298.81;;;12.60;41.26
75668;BME280;64266;48.798;44.756;2022-10-16T07:16:14;103290.00;;;12.60;40.74
75668;BME280;64266;48.798;44.756;2022-10-16T07:18:40;103295.97;;;12.70;40.07
75668;BME280;64266;48.798;44.756;2022-10-16T07:21:13;103266.56;;;12.39;40.97
75668;BME280;64266;48.798;44.756;2022-10-16T07:23:39;103305.47;;;12.56;40.93
75668;BME280;64266;48.798;44.756;2022-10-16T07:26:06;103251.44;;;12.23;39.07
75668;BME280;64266;48.798;44.756;2022-10-16T07:28:32;103303.31;;;12.43;40.29
75668;BME280;64266;48.798;44.756;2022-10-16T07:31:06;103297.00;;;12.36;40.60
75668;BME280;64266;48.798;44.756;2022-10-16T07:33:34;103260.41;;;12.22;39.33
75668;BME280;64266;48.798;44.756;2022-10-16T07:36:01;103263.75;;;12.32;40.29
75668;BME280;64266;48.798;44.756;2022-10-16T07:38:27;103305.78;;;12.53;40.18
75668;BME280;64266;48.798;44.756;2022-10-16T07:40:57;103300.47;;;12.53;39.76
75668;BME280;64266;48.798;44.756;2022-10-16T07:43:24;103252.44;;;12.30;39.19
75668;BME280;64266;48.798;44.756;2022-10-16T07:45:50;103285.34;;;12.45;39.72
75668;BME280;64266;48.798;44.756;2022-10-16T07:48:17;103298.63;;;12.62;39.92
75668;BME280;64266;48.798;44.756;2022-10-16T07:50:44;103296.63;;;12.56;39.65
75668;BME280;64266;48.798;44.756;2022-10-16T07:53:11;103293.34;;;12.45;39.29
75668;BME280;64266;48.798;44.756;2022-10-16T07:55:38;103295.66;;;12.40;39.99
75668;BME280;64266;48.798;44.756;2022-10-16T07:58:04;103282.19;;;12.26;39.71
75668;BME280;64266;48.798;44.756;2022-10-16T08:00:30;103251.44;;;12.07;40.75
75668;BME280;64266;48.798;44.756;2022-10-16T08:02:59;103295.47;;;12.34;41.26
75668;BME280;64266;48.798;44.756;2022-10-16T08:05:28;103296.31;;;12.34;40.88
75668;BME280;64266;48.798;44.756;2022-10-16T08:07:55;103284.69;;;12.35;40.20
75668;BME280;64266;48.798;44.756;2022-10-16T08:10:24;103297.31;;;12.41;40.17
75668;BME280;64266;48.798;44.756;2022-10-16T08:12:50;103267.75;;;12.36;40.86
75668;BME280;64266;48.798;44.756;2022-10-16T08:15:17;103258.72;;;12.37;41.08
75668;BME280;64266;48.798;44.756;2022-10-16T08:17:43;103289.34;;;12.58;40.31
75668;BME280;64266;48.798;44.756;2022-10-16T08:20:10;103251.56;;;12.46;41.15
75668;BME280;64266;48.798;44.756;2022-10-16T08:22:36;103276.00;;;12.66;40.20
75668;BME280;64266;48.798;44.756;2022-10-16T08:25:02;103282.50;;;12.63;39.58
75668;BME280;64266;48.798;44.756;2022-10-16T08:27:32;103281.84;;;12.61;39.49
75668;BME280;64266;48.798;44.756;2022-10-16T08:29:58;103279.84;;;12.47;39.39
75668;BME280;64266;48.798;44.756;2022-10-16T08:32:24;103244.63;;;12.29;40.10
75668;BME280;64266;48.798;44.756;2022-10-16T08:34:50;103241.13;;;12.28;39.80
75668;BME280;64266;48.798;44.756;2022-10-16T08:37:15;103248.09;;;12.37;39.48
75668;BME280;64266;48.798;44.756;2022-10-16T08:39:42;103238.47;;;12.28;39.86
75668;BME280;64266;48.798;44.756;2022-10-16T08:47:48;103279.38;;;12.52;39.54
75668;BME280;64266;48.798;44.756;2022-10-16T08:50:39;103290.19;;;12.42;39.54
75668;BME280;64266;48.798;44.756;2022-10-16T08:53:16;103248.75;;;12.15;40.21
75668;BME280;64266;48.798;44.756;2022-10-16T08:55:53;103289.34;;;12.41;40.43
75668;BME280;64266;48.798;44.756;2022-10-16T08:58:23;103286.84;;;12.32;40.57
75668;BME280;64266;48.798;44.756;2022-10-16T09:00:58;103279.03;;;12.22;40.33
75668;BME280;64266;48.798;44.756;2022-10-16T09:12:43;103275.38;;;12.31;40.79
75668;BME280;64266;48.798;44.756;2022-10-16T09:17:53;103272.06;;;12.45;40.08
75668;BME280;64266;48.798;44.756;2022-10-16T09:20:49;103220.00;;;12.19;39.77
75668;BME280;64266;48.798;44.756;2022-10-16T09:23:19;103265.56;;;12.48;40.14
75668;BME280;64266;48.798;44.756;2022-10-16T09:25:49;103263.56;;;12.34;40.04
75668;BME280;64266;48.798;44.756;2022-10-16T09:28:18;103255.41;;;12.35;40.68
75668;BME280;64266;48.798;44.756;2022-10-16T09:30:45;103257.72;;;12.46;39.71
75668;BME280;64266;48.798;44.756;2022-10-16T09:33:12;103263.38;;;12.43;40.04
75668;BME280;64266;48.798;44.756;2022-10-16T09:35:44;103220.19;;;12.17;40.52
75668;BME280;64266;48.798;44.756;2022-10-16T09:38:31;103247.06;;;12.46;41.09
75668;BME280;64266;48.798;44.756;2022-10-16T09:41:18;103219.19;;;12.26;41.03
75668;BME280;64266;48.798;44.756;2022-10-16T09:44:04;103244.09;;;12.41;40.96
75668;BME280;64266;48.798;44.756;2022-10-16T09:46:35;103254.75;;;12.41;40.26
75668;BME280;64266;48.798;44.756;2022-10-16T09:49:23;103242.59;;;12.47;41.44
75668;BME280;64266;48.798;44.756;2022-10-16T09:51:51;103235.47;;;12.39;41.00
75668;BME280;64266;48.798;44.756;2022-10-16T09:54:27;103229.47;;;12.37;40.36
75668;BME280;64266;48.798;44.756;2022-10-16T09:57:04;103245.59;;;12.44;40.15
75668;BME280;64266;48.798;44.756;2022-10-16T09:59:31;103198.91;;;12.17;40.49
75668;BME280;64266;48.798;44.756;2022-10-16T10:02:01;103204.22;;;12.33;40.52
75668;BME280;64266;48.798;44.756;2022-10-16T10:04:39;103227.13;;;12.50;40.18
75668;BME280;64266;48.798;44.756;2022-10-16T10:07:17;103202.03;;;12.37;40.76
75668;BME280;64266;48.798;44.756;2022-10-16T10:09:45;103252.06;;;12.49;40.32
75668;BME280;64266;48.798;44.756;2022-10-16T10:12:21;103265.03;;;12.52;40.80
75668;BME280;64266;48.798;44.756;2022-10-16T10:14:50;103197.56;;;12.13;41.31
75668;BME280;64266;48.798;44.756;2022-10-16T10:17:27;103260.22;;;12.56;40.36
75668;BME280;64266;48.798;44.756;2022-10-16T10:20:18;103251.53;;;12.62;41.10
75668;BME280;64266;48.798;44.756;2022-10-16T10:22:47;103205.53;;;12.29;40.14
75668;BME280;64266;48.798;44.756;2022-10-16T10:36:38;103232.31;;;12.36;40.57
75668;BME280;64266;48.798;44.756;2022-10-16T10:44:55;103240.75;;;12.47;40.43
75668;BME280;64266;48.798;44.756;2022-10-16T10:50:24;103236.78;;;12.43;40.94
75668;BME280;64266;48.798;44.756;2022-10-16T10:58:48;103250.88;;;12.52;41.29
75668;BME280;64266;48.798;44.756;2022-10-16T11:01:20;103242.41;;;12.57;39.92
75668;BME280;64266;48.798;44.756;2022-10-16T11:06:29;103232.94;;;12.46;40.49
75668;BME280;64266;48.798;44.756;2022-10-16T11:09:13;103234.59;;;12.47;40.70
75668;BME280;64266;48.798;44.756;2022-10-16T11:11:45;103226.66;;;12.39;41.49
75668;BME280;64266;48.798;44.756;2022-10-16T11:14:19;103236.09;;;12.49;41.54
75668;BME280;64266;48.798;44.756;2022-10-16T11:22:20;103231.28;;;12.53;40.99
75668;BME280;64266;48.798;44.756;2022-10-16T11:27:27;103180.94;;;12.19;40.06
75668;BME280;64266;48.798;44.756;2022-10-16T11:30:00;103242.25;;;12.50;40.93
75668;BME280;64266;48.798;44.756;2022-10-16T11:33:03;103236.09;;;12.49;39.91
75668;BME280;64266;48.798;44.756;2022-10-16T11:35:39;103232.13;;;12.45;40.09
75668;BME280;64266;48.798;44.756;2022-10-16T11:38:26;103211.19;;;12.34;40.14
75668;BME280;64266;48.798;44.756;2022-10-16T11:40:55;103213.69;;;12.36;40.67
75668;BME280;64266;48.798;44.756;2022-10-16T11:43:32;103219.97;;;12.43;40.04
75668;BME280;64266;48.798;44.756;2022-10-16T11:46:10;103203.19;;;12.34;40.92
75668;BME280;64266;48.798;44.756;2022-10-16T11:48:49;103199.03;;;12.32;41.42
75668;BME280;64266;48.798;44.756;2022-10-16T11:51:43;103212.50;;;12.38;40.68
75668;BME280;64266;48.798;44.756;2022-10-16T11:54:26;103202.22;;;12.27;41.21
75668;BME280;64266;48.798;44.756;2022-10-16T11:57:42;103146.56;;;11.85;41.26
75668;BME280;64266;48.798;44.756;2022-10-16T12:03:20;103214.53;;;12.20;41.13
75668;BME280;64266;48.798;44.756;2022-10-16T12:08:35;103188.94;;;12.03;41.30
75668;BME280;64266;48.798;44.756;2022-10-16T12:14:18;103186.78;;;11.90;41.84
75668;BME280;64266;48.798;44.756;2022-10-16T12:16:58;103164.34;;;11.77;41.23
75668;BME280;64266;48.798;44.756;2022-10-16T12:19:28;103163.19;;;11.71;42.14
75668;BME280;64266;48.798;44.756;2022-10-16T12:21:56;103195.59;;;11.83;42.24
75668;BME280;64266;48.798;44.756;2022-10-16T12:24:36;103185.78;;;11.75;42.02
75668;BME280;64266;48.798;44.756;2022-10-16T12:27:06;103188.28;;;11.77;41.50
75668;BME280;64266;48.798;44.756;2022-10-16T12:29:43;103201.91;;;11.74;42.14
75668;BME280;64266;48.798;44.756;2022-10-16T12:32:40;103186.47;;;11.77;42.31
75668;BME280;64266;48.798;44.756;2022-10-16T12:35:18;103195.25;;;11.78;42.97
75668;BME280;64266;48.798;44.756;2022-10-16T12:37:46;103185.44;;;11.70;41.46
75668;BME280;64266;48.798;44.756;2022-10-16T12:42:50;103151.84;;;11.45;42.13
75668;BME280;64266;48.798;44.756;2022-10-16T12:45:33;103175.09;;;11.51;42.31
75668;BME280;64266;48.798;44.756;2022-10-16T12:48:02;103196.38;;;11.59;42.24
75668;BME280;64266;48.798;44.756;2022-10-16T12:50:35;103191.53;;;11.55;42.26
75668;BME280;64266;48.798;44.756;2022-10-16T12:53:16;103200.81;;;11.51;42.29
75668;BME280;64266;48.798;44.756;2022-10-16T13:01:37;103194.00;;;11.48;42.82
75668;BME280;64266;48.798;44.756;2022-10-16T13:04:22;103192.53;;;11.46;42.97
75668;BME280;64266;48.798;44.756;2022-10-16T13:07:02;103196.16;;;11.28;42.68
75668;BME280;64266;48.798;44.756;2022-10-16T13:09:52;103203.81;;;11.39;42.65
75668;BME280;64266;48.798;44.756;2022-10-16T13:28:53;103207.88;;;11.10;44.51
75668;BME280;64266;48.798;44.756;2022-10-16T13:31:21;103205.53;;;11.07;44.33
75668;BME280;64266;48.798;44.756;2022-10-16T13:33:52;103202.31;;;10.95;44.15
75668;BME280;64266;48.798;44.756;2022-10-16T13:36:26;103224.66;;;11.10;44.16
75668;BME280;64266;48.798;44.756;2022-10-16T13:39:23;103230.44;;;11.06;43.69
75668;BME280;64266;48.798;44.756;2022-10-16T13:42:04;103231.59;;;11.03;43.98
75668;BME280;64266;48.798;44.756;2022-10-16T13:44:37;103195.97;;;10.80;44.66
75668;BME280;64266;48.798;44.756;2022-10-16T13:47:05;103191.28;;;10.74;44.05
75668;BME280;64266;48.798;44.756;2022-10-16T13:49:31;103191.81;;;10.77;44.74
75668;BME280;64266;48.798;44.756;2022-10-16T13:51:58;103217.56;;;10.85;44.50
75668;BME280;64266;48.798;44.756;2022-10-16T13:54:27;103185.75;;;10.59;44.74
75668;BME280;64266;48.798;44.756;2022-10-16T13:56:54;103197.03;;;10.61;45.17
75668;BME280;64266;48.798;44.756;2022-10-16T13:59:26;103208.16;;;10.65;45.50
75668;BME280;64266;48.798;44.756;2022-10-16T14:01:56;103231.47;;;10.79;45.14
75668;BME280;64266;48.798;44.756;2022-10-16T14:04:23;103183.06;;;10.51;45.40
75668;BME280;64266;48.798;44.756;2022-10-16T14:07:18;103191.66;;;10.45;45.42
75668;BME280;64266;48.798;44.756;2022-10-16T14:09:48;103243.03;;;10.70;46.07
75668;BME280;64266;48.798;44.756;2022-10-16T14:12:15;103238.34;;;10.64;46.08
75668;BME280;64266;48.798;44.756;2022-10-16T14:14:47;103225.19;;;10.54;46.44
75668;BME280;64266;48.798;44.756;2022-10-16T14:19:46;103222.44;;;10.38;46.74
75668;BME280;64266;48.798;44.756;2022-10-16T14:22:26;103246.19;;;10.48;46.72
75668;BME280;64266;48.798;44.756;2022-10-16T14:24:53;103207.41;;;10.21;46.86
75668;BME280;64266;48.798;44.756;2022-10-16T14:27:44;103210.09;;;10.11;47.33
75668;BME280;64266;48.798;44.756;2022-10-16T14:30:15;103245.41;;;10.29;47.57
75668;BME280;64266;48.798;44.756;2022-10-16T14:32:42;103255.19;;;10.29;47.29
75668;BME280;64266;48.798;44.756;2022-10-16T14:35:33;103236.09;;;10.08;48.18
75668;BME280;64266;48.798;44.756;2022-10-16T14:38:02;103262.88;;;10.14;48.17
75668;BME280;64266;48.798;44.756;2022-10-16T14:40:31;103271.09;;;10.11;48.19
75668;BME280;64266;48.798;44.756;2022-10-16T14:43:00;103237.63;;;9.93;48.11
75668;BME280;64266;48.798;44.756;2022-10-16T14:45:33;103251.00;;;9.91;48.19
75668;BME280;64266;48.798;44.756;2022-10-16T14:48:03;103256.53;;;9.98;48.65